createdAt,value
2017-05-29T00:01:53.831Z,100913
2017-05-29T00:04:22.786Z,100915
2017-05-29T00:06:52.100Z,100904
2017-05-29T00:09:21.086Z,100910
2017-05-29T00:11:50.043Z,100902
2017-05-29T00:14:19.374Z,100900
2017-05-29T00:16:48.359Z,100891
2017-05-29T00:19:17.437Z,100890
2017-05-29T00:21:46.796Z,100889
2017-05-29T00:24:15.836Z,100891
2017-05-29T00:26:44.792Z,100880
2017-05-29T00:29:14.114Z,100878
2017-05-29T00:31:43.077Z,100881
2017-05-29T00:34:12.034Z,100879
2017-05-29T00:36:41.473Z,100877
2017-05-29T00:39:10.420Z,100865
2017-05-29T00:41:39.378Z,100877
2017-05-29T00:44:08.818Z,100878
2017-05-29T00:46:37.795Z,100872
2017-05-29T00:49:07.052Z,100870
2017-05-29T00:51:36.398Z,100876
2017-05-29T00:54:05.362Z,100872
2017-05-29T00:56:34.310Z,100875
2017-05-29T00:59:03.652Z,100869
2017-05-29T01:01:32.629Z,100863
2017-05-29T01:04:01.601Z,100860
2017-05-29T01:06:31.014Z,100852
2017-05-29T01:08:59.968Z,100851
2017-05-29T01:11:28.957Z,100854
2017-05-29T01:13:58.422Z,100852
2017-05-29T01:16:27.406Z,100846
2017-05-29T01:18:56.375Z,100857
2017-05-29T01:21:25.757Z,100855
2017-05-29T01:23:54.715Z,100846
2017-05-29T01:26:23.673Z,100846
2017-05-29T01:28:52.222Z,100852
2017-05-29T01:31:21.183Z,100861
2017-05-29T01:33:50.212Z,100857
2017-05-29T01:36:19.522Z,100858
2017-05-29T01:38:48.456Z,100860
2017-05-29T01:41:17.413Z,100858
2017-05-29T01:43:47.866Z,100863
2017-05-29T01:46:16.827Z,100857
2017-05-29T01:48:45.797Z,100859
2017-05-29T01:51:15.162Z,100859
2017-05-29T01:53:44.128Z,100859
2017-05-29T01:56:13.081Z,100860
2017-05-29T01:58:42.506Z,100855
2017-05-29T02:01:11.537Z,100862
2017-05-29T02:03:40.527Z,100863
2017-05-29T02:06:09.884Z,100856
2017-05-29T02:08:39.872Z,100849
2017-05-29T02:11:08.823Z,100852
2017-05-29T02:13:38.185Z,100853
2017-05-29T02:16:07.171Z,100854
2017-05-29T02:18:36.157Z,100850
2017-05-29T02:21:05.472Z,100845
2017-05-29T02:23:34.453Z,100847
2017-05-29T02:26:03.425Z,100849
2017-05-29T02:28:32.757Z,100854
2017-05-29T02:31:01.717Z,100852
2017-05-29T02:33:30.720Z,100845
2017-05-29T02:36:00.044Z,100844
2017-05-29T02:38:29.009Z,100849
2017-05-29T02:40:58.170Z,100839
2017-05-29T02:43:27.524Z,100844
2017-05-29T02:45:56.593Z,100847
2017-05-29T02:48:25.555Z,100850
2017-05-29T02:50:54.926Z,100850
2017-05-29T02:53:23.889Z,100858
2017-05-29T02:55:52.856Z,100851
2017-05-29T02:58:22.199Z,100859
2017-05-29T03:00:51.165Z,100855
2017-05-29T03:03:20.125Z,100863
2017-05-29T03:05:49.532Z,100861
2017-05-29T03:08:18.482Z,100863
2017-05-29T03:10:47.474Z,100869
2017-05-29T03:13:16.858Z,100858
2017-05-29T03:15:45.813Z,100863
2017-05-29T03:18:14.775Z,100864
2017-05-29T03:20:44.159Z,100866
2017-05-29T03:23:13.113Z,100864
2017-05-29T03:25:42.076Z,100859
2017-05-29T03:28:11.394Z,100865
2017-05-29T03:30:40.386Z,100867
2017-05-29T03:33:09.361Z,100875
2017-05-29T03:35:38.726Z,100875
2017-05-29T03:38:07.687Z,100883
2017-05-29T03:40:36.650Z,100885
2017-05-29T03:43:06.116Z,100887
2017-05-29T03:45:35.085Z,100878
2017-05-29T03:48:04.078Z,100881
2017-05-29T03:50:33.497Z,100868
2017-05-29T03:53:02.432Z,100869
2017-05-29T03:55:31.403Z,100873
2017-05-29T03:58:00.766Z,100874
2017-05-29T04:00:29.733Z,100869
2017-05-29T04:02:58.687Z,100869
2017-05-29T04:05:28.056Z,100866
2017-05-29T04:07:57.087Z,100880
2017-05-29T04:10:29.782Z,100879
2017-05-29T04:12:58.763Z,100875
2017-05-29T04:15:27.722Z,100873
2017-05-29T04:17:57.040Z,100879
2017-05-29T04:20:25.997Z,100884
2017-05-29T04:22:54.978Z,100879
2017-05-29T04:25:24.415Z,100885
2017-05-29T04:27:53.390Z,100877
2017-05-29T04:30:22.370Z,100883
2017-05-29T04:32:51.806Z,100872
2017-05-29T04:35:20.770Z,100872
2017-05-29T04:37:49.726Z,100875
2017-05-29T04:40:19.069Z,100867
2017-05-29T04:42:48.050Z,100872
2017-05-29T04:45:17.028Z,100869
2017-05-29T04:47:46.456Z,100860
2017-05-29T04:50:15.486Z,100858
2017-05-29T04:52:44.448Z,100853
2017-05-29T04:55:13.782Z,100829
2017-05-29T04:57:42.742Z,100825
2017-05-29T05:00:11.698Z,100826
2017-05-29T05:02:41.028Z,100815
2017-05-29T05:05:09.972Z,100817
2017-05-29T05:07:38.983Z,100827
2017-05-29T05:10:08.407Z,100848
2017-05-29T05:12:37.368Z,100855
2017-05-29T05:15:06.426Z,100836
2017-05-29T05:17:35.862Z,100832
2017-05-29T05:20:04.891Z,100839
2017-05-29T05:22:33.926Z,100834
2017-05-29T05:25:03.271Z,100835
2017-05-29T05:27:32.682Z,100834
2017-05-29T05:30:01.670Z,100833
2017-05-29T05:32:31.075Z,100834
2017-05-29T05:35:00.063Z,100825
2017-05-29T05:37:29.039Z,100838
2017-05-29T05:39:58.473Z,100836
2017-05-29T05:42:27.425Z,100834
2017-05-29T05:44:56.399Z,100819
2017-05-29T05:47:25.731Z,100815
2017-05-29T05:49:54.752Z,100811
2017-05-29T05:52:23.803Z,100813
2017-05-29T05:54:53.122Z,100809
2017-05-29T05:57:22.075Z,100810
2017-05-29T05:59:51.047Z,100814
2017-05-29T06:02:20.382Z,100815
2017-05-29T06:04:49.346Z,100817
2017-05-29T06:07:18.351Z,100808
2017-05-29T06:09:47.707Z,100819
2017-05-29T06:12:16.685Z,100818
2017-05-29T06:14:45.642Z,100815
2017-05-29T06:17:15.101Z,100815
2017-05-29T06:19:44.078Z,100822
2017-05-29T06:22:13.127Z,100822
2017-05-29T06:24:42.478Z,100820
2017-05-29T06:27:11.841Z,100817
2017-05-29T06:29:40.932Z,100818
2017-05-29T06:32:10.385Z,100816
2017-05-29T06:34:39.381Z,100814
2017-05-29T06:37:08.345Z,100812
2017-05-29T06:39:37.699Z,100817
2017-05-29T06:42:06.681Z,100819
2017-05-29T06:44:35.639Z,100823
2017-05-29T06:47:05.037Z,100834
2017-05-29T06:49:34.016Z,100835
2017-05-29T06:52:02.996Z,100843
2017-05-29T06:54:32.349Z,100836
2017-05-29T06:57:02.486Z,100833
2017-05-29T06:59:31.619Z,100819
2017-05-29T07:02:01.039Z,100831
2017-05-29T07:04:30.022Z,100820
2017-05-29T07:06:59.093Z,100828
2017-05-29T07:09:28.526Z,100834
2017-05-29T07:11:57.485Z,100848
2017-05-29T07:14:26.443Z,100846
2017-05-29T07:16:55.771Z,100839
2017-05-29T07:19:24.848Z,100838
2017-05-29T07:21:53.819Z,100823
2017-05-29T07:24:23.188Z,100831
2017-05-29T07:26:52.148Z,100826
2017-05-29T07:29:21.106Z,100826
2017-05-29T07:31:50.467Z,100829
2017-05-29T07:34:19.432Z,100826
2017-05-29T07:36:48.380Z,100816
2017-05-29T07:39:17.820Z,100818
2017-05-29T07:41:46.790Z,100822
2017-05-29T07:44:15.852Z,100824
2017-05-29T07:46:45.264Z,100844
2017-05-29T07:49:14.238Z,100837
2017-05-29T07:51:43.212Z,100837
2017-05-29T07:54:12.660Z,100861
2017-05-29T07:56:41.624Z,100849
2017-05-29T07:59:10.586Z,100846
2017-05-29T08:01:39.902Z,100848
2017-05-29T08:04:08.866Z,100853
2017-05-29T08:06:37.805Z,100857
2017-05-29T08:09:07.215Z,100848
2017-05-29T08:11:36.195Z,100851
2017-05-29T08:14:05.164Z,100855
2017-05-29T08:16:34.484Z,100855
2017-05-29T08:19:03.453Z,100863
2017-05-29T08:21:34.834Z,100856
2017-05-29T08:24:03.796Z,100854
2017-05-29T08:26:32.751Z,100848
2017-05-29T08:29:02.161Z,100846
2017-05-29T08:31:31.148Z,100859
2017-05-29T08:34:00.114Z,100860
2017-05-29T08:36:29.503Z,100865
2017-05-29T08:38:58.477Z,100863
2017-05-29T08:41:27.450Z,100869
2017-05-29T08:43:56.899Z,100863
2017-05-29T08:46:25.908Z,100867
2017-05-29T08:48:54.892Z,100876
2017-05-29T08:51:24.221Z,100867
2017-05-29T08:53:53.194Z,100875
2017-05-29T08:56:22.189Z,100863
2017-05-29T08:58:51.539Z,100856
2017-05-29T09:01:20.496Z,100856
2017-05-29T09:03:49.465Z,100857
2017-05-29T09:06:18.788Z,100834
2017-05-29T09:08:47.735Z,100843
2017-05-29T09:11:16.710Z,100839
2017-05-29T09:13:45.297Z,100830
2017-05-29T09:16:14.268Z,100826
2017-05-29T09:18:43.222Z,100818
2017-05-29T09:21:12.568Z,100809
2017-05-29T09:23:41.530Z,100801
2017-05-29T09:26:10.601Z,100800
2017-05-29T09:28:39.962Z,100798
2017-05-29T09:31:08.935Z,100789
2017-05-29T09:33:37.914Z,100786
2017-05-29T09:38:42.980Z,100768
2017-05-29T09:41:12.325Z,100775
2017-05-29T09:43:41.312Z,100771
2017-05-29T09:46:10.263Z,100771
2017-05-29T09:48:38.817Z,100753
2017-05-29T09:51:07.795Z,100749
2017-05-29T09:53:36.839Z,100746
2017-05-29T09:56:06.255Z,100760
2017-05-29T09:58:35.221Z,100756
2017-05-29T10:01:04.182Z,100736
2017-05-29T10:03:33.539Z,100728
2017-05-29T10:06:02.500Z,100706
2017-05-29T10:08:31.455Z,100688
2017-05-29T10:11:00.855Z,100676
2017-05-29T10:13:29.881Z,100664
2017-05-29T10:15:58.873Z,100658
2017-05-29T10:18:28.197Z,100653
2017-05-29T10:20:57.164Z,100671
2017-05-29T10:23:26.179Z,100666
2017-05-29T10:25:55.491Z,100677
2017-05-29T10:28:24.465Z,100678
2017-05-29T10:30:53.422Z,100674
2017-05-29T10:33:22.977Z,100681
2017-05-29T10:35:51.953Z,100680
2017-05-29T10:38:21.005Z,100660
2017-05-29T10:40:50.302Z,100661
2017-05-29T10:43:19.258Z,100659
2017-05-29T10:45:48.215Z,100655
2017-05-29T10:48:17.542Z,100648
2017-05-29T10:50:46.517Z,100658
2017-05-29T10:53:15.499Z,100652
2017-05-29T10:55:44.856Z,100654
2017-05-29T10:58:13.839Z,100680
2017-05-29T11:00:42.850Z,100701
2017-05-29T11:03:12.224Z,100713
2017-05-29T11:05:41.186Z,100709
2017-05-29T11:08:10.126Z,100722
2017-05-29T11:10:39.519Z,100720
2017-05-29T11:13:08.479Z,100712
2017-05-29T11:15:37.444Z,100713
2017-05-29T11:18:06.789Z,100708
2017-05-29T11:20:35.764Z,100697
2017-05-29T11:23:04.756Z,100688
2017-05-29T11:25:34.159Z,100684
2017-05-29T11:28:03.105Z,100675
2017-05-29T11:30:32.088Z,100682
2017-05-29T11:33:01.400Z,100676
2017-05-29T11:35:30.345Z,100672
2017-05-29T11:37:59.301Z,100684
2017-05-29T11:40:28.624Z,100677
2017-05-29T11:42:57.597Z,100676
2017-05-29T11:45:26.567Z,100675
2017-05-29T11:47:55.947Z,100683
2017-05-29T11:50:24.910Z,100683
2017-05-29T11:52:53.868Z,100677
2017-05-29T11:55:23.236Z,100673
2017-05-29T11:57:52.216Z,100668
2017-05-29T12:00:21.182Z,100672
2017-05-29T12:02:50.571Z,100673
2017-05-29T12:05:19.595Z,100667
2017-05-29T12:07:48.598Z,100668
2017-05-29T12:10:17.961Z,100666
2017-05-29T12:12:46.931Z,100664
2017-05-29T12:15:15.891Z,100653
2017-05-29T12:17:45.363Z,100650
2017-05-29T12:20:14.315Z,100655
2017-05-29T12:22:43.363Z,100661
2017-05-29T12:25:12.730Z,100652
2017-05-29T12:27:41.677Z,100640
2017-05-29T12:30:10.650Z,100645
2017-05-29T12:32:40.030Z,100648
2017-05-29T12:35:08.955Z,100640
2017-05-29T12:37:38.009Z,100650
2017-05-29T12:40:07.313Z,100644
2017-05-29T12:42:36.286Z,100645
2017-05-29T12:45:05.270Z,100627
2017-05-29T12:47:34.699Z,100636
2017-05-29T12:50:03.659Z,100634
2017-05-29T12:52:32.653Z,100624
2017-05-29T12:55:02.081Z,100630
2017-05-29T12:57:31.041Z,100626
2017-05-29T13:00:00.015Z,100625
2017-05-29T13:02:29.317Z,100623
2017-05-29T13:04:58.323Z,100629
2017-05-29T13:07:27.274Z,100625
2017-05-29T13:09:56.643Z,100624
2017-05-29T13:12:25.602Z,100622
2017-05-29T13:14:54.595Z,100623
2017-05-29T13:17:23.946Z,100629
2017-05-29T13:19:52.927Z,100624
2017-05-29T13:22:21.889Z,100627
2017-05-29T13:24:51.395Z,100619
2017-05-29T13:27:19.604Z,100612
2017-05-29T13:29:48.564Z,100615
2017-05-29T13:32:17.983Z,100610
2017-05-29T13:34:46.973Z,100617
2017-05-29T13:37:15.917Z,100611
2017-05-29T13:39:45.269Z,100610
2017-05-29T13:42:14.234Z,100607
2017-05-29T13:44:43.183Z,100601
2017-05-29T13:47:12.549Z,100599
2017-05-29T13:49:41.491Z,100596
2017-05-29T13:52:10.447Z,100607
2017-05-29T13:54:39.829Z,100595
2017-05-29T13:57:08.825Z,100597
2017-05-29T13:59:37.791Z,100586
2017-05-29T14:02:07.291Z,100587
2017-05-29T14:04:36.244Z,100578
2017-05-29T14:07:05.196Z,100576
2017-05-29T14:09:34.614Z,100568
2017-05-29T14:12:03.563Z,100583
2017-05-29T14:14:32.522Z,100569
2017-05-29T14:17:01.962Z,100571
2017-05-29T14:19:30.957Z,100568
2017-05-29T14:21:59.912Z,100559
2017-05-29T14:24:29.302Z,100563
2017-05-29T14:26:58.257Z,100560
2017-05-29T14:29:27.210Z,100563
2017-05-29T14:31:56.659Z,100552
2017-05-29T14:34:25.610Z,100559
2017-05-29T14:36:54.548Z,100551
2017-05-29T14:39:23.941Z,100548
2017-05-29T14:41:52.892Z,100550
2017-05-29T14:44:21.907Z,100552
2017-05-29T14:46:51.243Z,100545
2017-05-29T14:49:20.203Z,100547
2017-05-29T14:51:49.175Z,100551
2017-05-29T14:54:18.499Z,100546
2017-05-29T14:56:47.465Z,100546
2017-05-29T14:59:16.429Z,100540
2017-05-29T15:01:45.783Z,100546
2017-05-29T15:04:14.736Z,100534
2017-05-29T15:06:43.681Z,100525
2017-05-29T15:09:13.075Z,100523
2017-05-29T15:11:42.075Z,100522
2017-05-29T15:14:11.041Z,100521
2017-05-29T15:16:40.376Z,100522
2017-05-29T15:19:09.336Z,100526
2017-05-29T15:21:38.298Z,100517
2017-05-29T15:24:07.643Z,100514
2017-05-29T15:26:36.627Z,100524
2017-05-29T15:29:05.587Z,100524
2017-05-29T15:31:34.935Z,100524
2017-05-29T15:34:04.501Z,100519
2017-05-29T15:36:33.508Z,100518
2017-05-29T15:39:02.847Z,100529
2017-05-29T15:41:31.814Z,100514
2017-05-29T15:44:00.784Z,100517
2017-05-29T15:46:30.101Z,100507
2017-05-29T15:48:59.059Z,100509
2017-05-29T15:51:28.026Z,100512
2017-05-29T15:53:57.407Z,100500
2017-05-29T15:56:27.021Z,100486
2017-05-29T15:58:56.015Z,100501
2017-05-29T16:01:25.380Z,100495
2017-05-29T16:03:54.419Z,100495
2017-05-29T16:06:23.378Z,100493
2017-05-29T16:08:52.722Z,100496
2017-05-29T16:11:21.683Z,100493
2017-05-29T16:13:50.677Z,100495
2017-05-29T16:16:20.068Z,100493
2017-05-29T16:18:49.056Z,100501
2017-05-29T16:21:18.037Z,100490
2017-05-29T16:23:47.548Z,100490
2017-05-29T16:26:16.515Z,100497
2017-05-29T16:28:45.483Z,100492
2017-05-29T16:31:14.876Z,100490
2017-05-29T16:33:43.862Z,100494
2017-05-29T16:36:12.840Z,100488
2017-05-29T16:38:42.932Z,100491
2017-05-29T16:41:12.004Z,100489
2017-05-29T16:43:40.992Z,100488
2017-05-29T16:46:10.360Z,100484
2017-05-29T16:48:39.319Z,100484
2017-05-29T16:51:08.301Z,100477
2017-05-29T16:53:37.735Z,100477
2017-05-29T16:56:06.698Z,100484
2017-05-29T16:58:35.652Z,100486
2017-05-29T17:01:05.007Z,100488
2017-05-29T17:03:33.974Z,100491
2017-05-29T17:06:03.032Z,100487
2017-05-29T17:08:32.344Z,100482
2017-05-29T17:11:01.302Z,100482
2017-05-29T17:13:30.262Z,100487
2017-05-29T17:15:59.669Z,100491
2017-05-29T17:18:28.655Z,100485
2017-05-29T17:20:57.633Z,100482
2017-05-29T17:23:26.979Z,100488
2017-05-29T17:25:55.950Z,100496
2017-05-29T17:28:24.971Z,100482
2017-05-29T17:30:54.283Z,100485
2017-05-29T17:33:23.257Z,100483
2017-05-29T17:35:52.208Z,100479
2017-05-29T17:38:21.612Z,100483
2017-05-29T17:40:50.626Z,100485
2017-05-29T17:43:19.624Z,100467
2017-05-29T17:45:48.999Z,100474
2017-05-29T17:48:17.980Z,100479
2017-05-29T17:50:47.063Z,100479
2017-05-29T17:53:16.413Z,100478
2017-05-29T17:55:45.408Z,100484
2017-05-29T17:58:14.437Z,100484
2017-05-29T18:00:43.764Z,100484
2017-05-29T18:03:12.727Z,100494
2017-05-29T18:05:41.703Z,100485
2017-05-29T18:08:11.029Z,100487
2017-05-29T18:10:40.009Z,100488
2017-05-29T18:13:08.980Z,100484
2017-05-29T18:15:38.355Z,100482
2017-05-29T18:18:07.340Z,100487
2017-05-29T18:20:36.324Z,100487
2017-05-29T18:23:05.704Z,100489
2017-05-29T18:25:34.710Z,100490
2017-05-29T18:28:03.747Z,100487
2017-05-29T18:30:33.130Z,100482
2017-05-29T18:33:02.123Z,100487
2017-05-29T18:35:30.321Z,100487
2017-05-29T18:37:59.597Z,100491
2017-05-29T18:40:28.590Z,100496
2017-05-29T18:42:57.570Z,100488
2017-05-29T18:45:26.980Z,100480
2017-05-29T18:47:56.008Z,100486
2017-05-29T18:50:24.987Z,100494
2017-05-29T18:52:54.378Z,100492
2017-05-29T18:55:23.418Z,100489
2017-05-29T18:57:52.395Z,100491
2017-05-29T19:00:21.731Z,100497
2017-05-29T19:02:50.699Z,100486
2017-05-29T19:05:19.678Z,100498
2017-05-29T19:07:49.134Z,100506
2017-05-29T19:10:18.086Z,100510
2017-05-29T19:12:47.104Z,100500
2017-05-29T19:15:16.520Z,100508
2017-05-29T19:17:45.483Z,100505
2017-05-29T19:20:14.518Z,100507
2017-05-29T19:22:43.880Z,100520
2017-05-29T19:25:12.845Z,100527
2017-05-29T19:27:41.813Z,100523
2017-05-29T19:30:11.309Z,100527
2017-05-29T19:32:40.280Z,100532
2017-05-29T19:35:09.273Z,100527
2017-05-29T19:37:38.728Z,100531
2017-05-29T19:40:07.719Z,100530
2017-05-29T19:42:36.690Z,100531
2017-05-29T19:45:06.082Z,100521
2017-05-29T19:47:35.063Z,100515
2017-05-29T19:50:04.058Z,100525
2017-05-29T19:52:33.380Z,100522
2017-05-29T19:55:02.354Z,100524
2017-05-29T19:57:31.374Z,100527
2017-05-29T20:00:00.745Z,100524
2017-05-29T20:02:29.757Z,100512
2017-05-29T20:04:58.741Z,100522
2017-05-29T20:07:28.114Z,100520
2017-05-29T20:09:57.119Z,100518
2017-05-29T20:12:26.125Z,100521
2017-05-29T20:14:55.504Z,100516
2017-05-29T20:17:24.482Z,100515
2017-05-29T20:19:53.457Z,100504
2017-05-29T20:22:22.890Z,100504
2017-05-29T20:24:51.867Z,100506
2017-05-29T20:27:20.854Z,100511
2017-05-29T20:29:51.026Z,100506
2017-05-29T20:32:20.008Z,100495
2017-05-29T20:34:50.205Z,100501
2017-05-29T20:37:19.625Z,100501
2017-05-29T20:39:48.607Z,100503
2017-05-29T20:42:17.577Z,100508
2017-05-29T20:44:46.908Z,100507
2017-05-29T20:47:15.889Z,100497
2017-05-29T20:49:44.851Z,100499
2017-05-29T20:52:14.280Z,100503
2017-05-29T20:54:43.318Z,100503
2017-05-29T20:57:12.367Z,100505
2017-05-29T20:59:41.853Z,100497
2017-05-29T21:02:10.808Z,100504
2017-05-29T21:04:39.775Z,100504
2017-05-29T21:07:09.370Z,100508
2017-05-29T21:09:38.343Z,100505
2017-05-29T21:12:07.305Z,100501
2017-05-29T21:14:36.637Z,100498
2017-05-29T21:17:05.637Z,100489
2017-05-29T21:19:34.630Z,100497
2017-05-29T21:22:04.039Z,100492
2017-05-29T21:24:33.012Z,100493
2017-05-29T21:27:01.986Z,100487
2017-05-29T21:29:31.293Z,100478
2017-05-29T21:32:00.272Z,100478
2017-05-29T21:34:29.290Z,100472
2017-05-29T21:36:58.698Z,100473
2017-05-29T21:39:27.650Z,100484
2017-05-29T21:41:56.629Z,100480
2017-05-29T21:44:25.962Z,100483
2017-05-29T21:46:54.939Z,100479
2017-05-29T21:49:23.923Z,100478
2017-05-29T21:51:53.258Z,100473
2017-05-29T21:54:22.261Z,100483
2017-05-29T21:56:51.207Z,100470
2017-05-29T21:59:20.541Z,100471
2017-05-29T22:01:49.548Z,100461
2017-05-29T22:04:18.599Z,100458
2017-05-29T22:06:47.923Z,100464
2017-05-29T22:09:16.958Z,100459
2017-05-29T22:11:45.921Z,100447
2017-05-29T22:14:15.227Z,100445
2017-05-29T22:16:44.236Z,100441
2017-05-29T22:19:13.276Z,100446
2017-05-29T22:21:42.730Z,100435
2017-05-29T22:24:11.705Z,100437
2017-05-29T22:26:40.802Z,100430
2017-05-29T22:29:10.140Z,100432
2017-05-29T22:31:39.103Z,100427
2017-05-29T22:34:08.161Z,100431
2017-05-29T22:36:37.693Z,100418
2017-05-29T22:39:06.751Z,100423
2017-05-29T22:41:35.743Z,100413
2017-05-29T22:44:05.067Z,100418
2017-05-29T22:46:34.108Z,100414
2017-05-29T22:49:03.056Z,100410
2017-05-29T22:51:32.726Z,100410
2017-05-29T22:54:01.958Z,100403
2017-05-29T22:56:30.940Z,100404
2017-05-29T22:59:00.364Z,100408
2017-05-29T23:01:29.467Z,100412
2017-05-29T23:03:58.610Z,100416
2017-05-29T23:06:27.986Z,100413
2017-05-29T23:08:56.994Z,100413
2017-05-29T23:11:27.428Z,100411
2017-05-29T23:13:56.879Z,100415
2017-05-29T23:16:25.847Z,100411
2017-05-29T23:18:54.822Z,100409
2017-05-29T23:21:24.139Z,100406
2017-05-29T23:23:53.085Z,100401
2017-05-29T23:26:22.037Z,100397
2017-05-29T23:28:51.326Z,100390
2017-05-29T23:31:20.290Z,100394
2017-05-29T23:33:49.333Z,100394
2017-05-29T23:36:18.715Z,100403
2017-05-29T23:38:47.667Z,100390
2017-05-29T23:41:16.653Z,100396
2017-05-29T23:43:46.087Z,100392
2017-05-29T23:46:15.041Z,100394
2017-05-29T23:48:45.099Z,100393
2017-05-29T23:51:15.224Z,100397
2017-05-29T23:53:44.183Z,100394
2017-05-29T23:56:13.144Z,100389
2017-05-29T23:58:42.507Z,100393
